Time;durP1;ratioP1;P1;durP2;ratioP2;P2;SDS_P1;SDS_P2;PMS_P1;PMS_P2;Temp;Humidity;BMP_temperature;BMP_pressure;BME280_temperature;BME280_humidity;BME280_pressure;Samples;Min_cycle;Max_cycle;Signal;HPM_P1;HPM_P2
2023/06/25 00:00:38;;;;;;;9.77;8.70;;;18.20;99.90;;;;;;5027007;28;20054;-73
2023/06/25 00:03:05;;;;;;;11.52;9.02;;;18.20;99.90;;;;;;5011896;28;20050;-73
2023/06/25 00:05:34;;;;;;;10.52;8.88;;;18.00;99.90;;;;;;5003356;28;20070;-72
2023/06/25 00:08:01;;;;;;;12.50;9.07;;;18.00;99.90;;;;;;5011618;28;20075;-72
2023/06/25 00:10:29;;;;;;;10.48;8.55;;;17.90;99.90;;;;;;5002739;28;20474;-71
2023/06/25 00:12:57;;;;;;;10.02;8.65;;;17.90;99.90;;;;;;4996438;28;20049;-72
2023/06/25 00:15:25;;;;;;;11.25;9.00;;;17.90;99.90;;;;;;5010403;28;20557;-72
2023/06/25 00:17:53;;;;;;;10.25;8.27;;;17.80;99.90;;;;;;5008798;28;20050;-72
2023/06/25 00:20:23;;;;;;;10.25;8.07;;;17.80;99.90;;;;;;4993727;28;20054;-73
2023/06/25 00:22:51;;;;;;;10.68;8.80;;;17.80;99.90;;;;;;5028788;28;20046;-73
2023/06/25 00:25:35;;;;;;;10.07;8.98;;;17.80;99.90;;;;;;5003701;28;20149;-73
2023/06/25 00:28:08;;;;;;;11.23;8.15;;;17.80;99.90;;;;;;4981649;28;20060;-73
2023/06/25 00:30:37;;;;;;;10.50;8.07;;;17.70;99.90;;;;;;5010345;28;20498;-72
2023/06/25 00:33:06;;;;;;;10.25;8.45;;;17.70;99.90;;;;;;5011753;28;20056;-72
2023/06/25 00:35:49;;;;;;;10.23;8.02;;;17.70;99.90;;;;;;4992800;28;20053;-72
2023/06/25 00:38:17;;;;;;;10.88;8.40;;;17.70;99.90;;;;;;4994219;28;20130;-72
2023/06/25 00:40:45;;;;;;;10.93;8.35;;;17.60;99.90;;;;;;5010703;28;20057;-72
2023/06/25 00:43:16;;;;;;;10.77;8.32;;;17.60;99.90;;;;;;5010714;28;20375;-73
2023/06/25 00:45:44;;;;;;;11.75;9.02;;;17.60;99.90;;;;;;4976585;28;20074;-73
2023/06/25 00:48:12;;;;;;;9.20;8.15;;;17.50;99.90;;;;;;4992375;28;20046;-74
2023/06/25 00:50:40;;;;;;;9.35;7.82;;;17.50;99.90;;;;;;5012665;28;20145;-73
2023/06/25 00:53:12;;;;;;;10.50;8.32;;;17.50;99.90;;;;;;5010234;28;20144;-72
2023/06/25 00:55:41;;;;;;;10.77;8.32;;;17.50;99.90;;;;;;5014164;28;20097;-73
2023/06/25 00:58:10;;;;;;;9.63;8.38;;;17.50;99.90;;;;;;4998196;28;20062;-73
2023/06/25 01:00:39;;;;;;;11.20;8.20;;;17.50;99.90;;;;;;5013469;28;20122;-72
2023/06/25 01:03:28;;;;;;;11.30;8.95;;;17.40;99.90;;;;;;5018436;28;20157;-72
2023/06/25 01:06:05;;;;;;;9.07;7.90;;;17.40;99.90;;;;;;4995466;28;20050;-73
2023/06/25 01:08:42;;;;;;;10.48;8.32;;;17.30;99.90;;;;;;4997831;28;20056;-73
2023/06/25 01:11:10;;;;;;;10.85;8.02;;;17.20;99.90;;;;;;5009426;28;20089;-72
2023/06/25 01:13:38;;;;;;;10.32;8.13;;;17.20;99.90;;;;;;5004165;28;20081;-72
2023/06/25 01:16:06;;;;;;;9.73;8.27;;;17.20;99.90;;;;;;5013391;28;20459;-73
2023/06/25 01:18:33;;;;;;;9.95;8.48;;;17.20;99.90;;;;;;4997521;28;20050;-73
2023/06/25 01:21:03;;;;;;;13.05;8.18;;;17.10;99.90;;;;;;4998659;28;20049;-73
2023/06/25 01:23:32;;;;;;;12.20;7.90;;;17.10;99.90;;;;;;5014080;28;20492;-73
2023/06/25 01:26:00;;;;;;;9.60;8.27;;;17.10;99.90;;;;;;4998060;28;20077;-73
2023/06/25 01:28:28;;;;;;;12.32;8.18;;;17.10;99.90;;;;;;5013259;28;20046;-73
2023/06/25 01:30:58;;;;;;;11.00;8.30;;;17.10;99.90;;;;;;5015847;28;20108;-72
2023/06/25 01:33:26;;;;;;;10.55;8.18;;;17.10;99.90;;;;;;5012521;28;20169;-73
2023/06/25 01:35:57;;;;;;;10.95;7.97;;;17.00;99.90;;;;;;4998155;28;20081;-73
2023/06/25 01:38:24;;;;;;;9.48;8.27;;;17.00;99.90;;;;;;5010713;28;20521;-72
2023/06/25 01:40:52;;;;;;;12.38;9.05;;;17.00;99.90;;;;;;4979034;28;20077;-73
2023/06/25 01:43:21;;;;;;;9.80;8.73;;;17.00;99.90;;;;;;4994512;28;20510;-72
2023/06/25 01:45:48;;;;;;;9.82;8.18;;;17.00;99.90;;;;;;5010750;28;20076;-73
2023/06/25 01:48:17;;;;;;;9.15;8.15;;;16.90;99.90;;;;;;4995582;28;20129;-73
2023/06/25 01:50:44;;;;;;;9.95;7.95;;;16.90;99.90;;;;;;5009298;28;20141;-73
2023/06/25 01:53:12;;;;;;;10.85;8.38;;;16.90;99.90;;;;;;4992588;28;20207;-72
2023/06/25 01:55:39;;;;;;;11.98;8.90;;;16.80;99.90;;;;;;5010343;28;20058;-72
2023/06/25 01:58:07;;;;;;;10.00;8.93;;;16.80;99.90;;;;;;5013133;28;20073;-73
2023/06/25 02:00:37;;;;;;;11.48;8.13;;;16.80;99.90;;;;;;4967872;28;20569;-72
2023/06/25 02:03:05;;;;;;;10.32;8.80;;;16.80;99.90;;;;;;5007080;28;20079;-72
2023/06/25 02:05:33;;;;;;;10.88;8.23;;;16.70;99.90;;;;;;5011507;28;20383;-72
2023/06/25 02:08:01;;;;;;;12.75;8.32;;;16.70;99.90;;;;;;5001258;28;20080;-72
2023/06/25 02:10:32;;;;;;;9.02;7.78;;;16.70;99.90;;;;;;5010978;28;20420;-72
2023/06/25 02:13:00;;;;;;;11.52;9.30;;;16.60;99.90;;;;;;5021407;28;20054;-72
2023/06/25 02:15:29;;;;;;;11.70;8.38;;;16.60;99.90;;;;;;4991622;28;20631;-73
2023/06/25 02:17:58;;;;;;;10.02;8.23;;;16.60;99.90;;;;;;4992516;28;20187;-72
2023/06/25 02:20:25;;;;;;;9.57;7.82;;;16.60;99.90;;;;;;4991584;28;20122;-73
2023/06/25 02:22:53;;;;;;;11.07;8.70;;;16.50;99.90;;;;;;5009960;28;20038;-73
2023/06/25 02:25:20;;;;;;;11.85;8.30;;;16.50;99.90;;;;;;5007997;28;20050;-73
2023/06/25 02:27:47;;;;;;;9.48;8.10;;;16.40;99.90;;;;;;5008806;28;20056;-73
2023/06/25 02:30:15;;;;;;;9.98;8.10;;;16.40;99.90;;;;;;4984575;28;20046;-72
2023/06/25 02:32:42;;;;;;;11.63;8.38;;;16.40;99.90;;;;;;4993197;28;20436;-72
2023/06/25 02:35:10;;;;;;;10.75;8.52;;;16.40;99.90;;;;;;4992633;28;20058;-72
2023/06/25 02:37:38;;;;;;;10.88;8.65;;;16.30;99.90;;;;;;5012116;28;20058;-72
2023/06/25 02:40:06;;;;;;;10.85;8.63;;;16.30;99.90;;;;;;5012980;28;20042;-72
2023/06/25 02:42:33;;;;;;;10.95;8.60;;;16.30;99.90;;;;;;5012706;28;20509;-73
2023/06/25 02:45:01;;;;;;;10.55;7.90;;;16.20;99.90;;;;;;4996383;28;20053;-72
2023/06/25 02:47:30;;;;;;;10.13;8.13;;;16.30;99.90;;;;;;4993389;28;20053;-72
2023/06/25 02:49:58;;;;;;;9.52;7.88;;;16.20;99.90;;;;;;5007993;28;20462;-72
2023/06/25 02:52:29;;;;;;;10.50;8.30;;;16.20;99.90;;;;;;4992616;28;20077;-72
2023/06/25 02:54:56;;;;;;;9.95;8.32;;;16.20;99.90;;;;;;5007683;28;20065;-72
2023/06/25 02:57:29;;;;;;;11.80;8.32;;;16.20;99.90;;;;;;4998824;28;20096;-72
2023/06/25 02:59:57;;;;;;;10.52;8.35;;;16.20;99.90;;;;;;4991243;28;20695;-72
2023/06/25 03:02:26;;;;;;;9.68;8.48;;;16.10;99.90;;;;;;4975064;28;20052;-72
2023/06/25 03:04:53;;;;;;;9.98;8.30;;;16.10;99.90;;;;;;4991895;28;20435;-72
2023/06/25 03:07:21;;;;;;;9.93;7.88;;;16.10;99.90;;;;;;4993948;28;20125;-73
2023/06/25 03:09:51;;;;;;;9.88;7.75;;;16.10;99.90;;;;;;5008754;28;20056;-72
2023/06/25 03:12:20;;;;;;;8.73;7.60;;;16.10;99.90;;;;;;4993211;28;20062;-72
2023/06/25 03:14:48;;;;;;;11.20;7.85;;;16.10;99.90;;;;;;4991380;28;20052;-72
2023/06/25 03:17:16;;;;;;;10.60;8.20;;;16.10;99.90;;;;;;4974979;28;20038;-72
2023/06/25 03:19:44;;;;;;;10.35;7.90;;;16.10;99.90;;;;;;5006593;28;20127;-72
2023/06/25 03:22:11;;;;;;;9.80;7.55;;;16.10;99.90;;;;;;5007486;28;20050;-72
2023/06/25 03:24:42;;;;;;;9.60;7.85;;;16.10;99.90;;;;;;5000671;28;20119;-72
2023/06/25 03:27:11;;;;;;;9.60;7.72;;;16.10;99.90;;;;;;5003564;28;20054;-72
2023/06/25 03:29:39;;;;;;;11.60;7.85;;;16.20;99.90;;;;;;5014561;28;20070;-72
2023/06/25 03:32:07;;;;;;;9.50;7.53;;;16.10;99.90;;;;;;4991387;28;20069;-72
2023/06/25 03:34:35;;;;;;;9.13;7.40;;;16.20;99.90;;;;;;4989847;28;20262;-72
2023/06/25 03:37:02;;;;;;;10.50;7.93;;;16.20;99.90;;;;;;5006495;28;20557;-72
2023/06/25 03:39:31;;;;;;;9.63;7.82;;;16.20;99.90;;;;;;4990728;28;20553;-72
2023/06/25 03:41:58;;;;;;;9.73;7.72;;;16.20;99.90;;;;;;4990294;28;20042;-72
2023/06/25 03:44:26;;;;;;;8.90;7.72;;;16.20;99.90;;;;;;5008542;28;20061;-72
2023/06/25 03:46:53;;;;;;;9.38;7.03;;;16.20;99.90;;;;;;4990569;28;20056;-72
2023/06/25 03:49:22;;;;;;;8.77;7.10;;;16.30;99.90;;;;;;5008640;28;20042;-72
2023/06/25 03:51:49;;;;;;;12.57;7.97;;;16.30;99.90;;;;;;4999414;28;20473;-72
2023/06/25 03:54:17;;;;;;;11.55;8.48;;;16.30;99.90;;;;;;4992575;28;20526;-71
2023/06/25 03:56:45;;;;;;;8.20;6.93;;;16.40;99.90;;;;;;4991094;28;20481;-72
2023/06/25 03:59:12;;;;;;;8.70;7.57;;;16.40;99.90;;;;;;4991276;28;20054;-72
2023/06/25 04:01:41;;;;;;;9.95;7.68;;;16.50;99.90;;;;;;5007376;28;20042;-72
2023/06/25 04:04:08;;;;;;;9.75;7.50;;;16.60;99.90;;;;;;5007478;28;20135;-72
2023/06/25 04:06:36;;;;;;;9.73;7.65;;;16.60;99.90;;;;;;4988676;28;20144;-72
2023/06/25 04:09:04;;;;;;;9.20;7.35;;;16.70;99.90;;;;;;4992632;28;20164;-72
2023/06/25 04:11:31;;;;;;;9.73;7.82;;;16.80;99.90;;;;;;5010679;28;20200;-72
2023/06/25 04:13:59;;;;;;;8.90;7.25;;;16.80;99.90;;;;;;5014322;28;20525;-72
2023/06/25 04:16:27;;;;;;;10.85;8.88;;;16.90;99.90;;;;;;5007281;28;20232;-72
2023/06/25 04:18:54;;;;;;;10.65;8.10;;;16.90;99.90;;;;;;5004567;28;20429;-72
2023/06/25 04:21:22;;;;;;;11.35;8.25;;;17.00;99.90;;;;;;5006914;28;20057;-72
2023/06/25 04:23:50;;;;;;;10.45;8.75;;;17.00;99.90;;;;;;4999837;28;20139;-72
2023/06/25 04:26:19;;;;;;;9.82;8.27;;;17.00;99.90;;;;;;5008448;28;20057;-71
2023/06/25 04:28:47;;;;;;;10.48;7.82;;;17.10;99.90;;;;;;4990250;28;20079;-72
2023/06/25 04:31:14;;;;;;;10.25;8.20;;;17.10;99.90;;;;;;4990976;28;20512;-72
2023/06/25 04:33:42;;;;;;;14.23;8.55;;;17.10;99.90;;;;;;4994565;28;20415;-72
2023/06/25 04:36:11;;;;;;;10.25;8.32;;;17.20;99.90;;;;;;4994455;28;20065;-72
2023/06/25 04:38:39;;;;;;;10.10;8.43;;;17.20;99.90;;;;;;5012907;28;20042;-72
2023/06/25 04:41:07;;;;;;;9.38;8.07;;;17.30;99.90;;;;;;5010813;28;20237;-72
2023/06/25 04:43:35;;;;;;;10.73;8.15;;;17.40;99.90;;;;;;4971664;28;20104;-72
2023/06/25 04:46:03;;;;;;;11.70;8.25;;;17.40;99.90;;;;;;5012140;28;20050;-72
2023/06/25 04:48:30;;;;;;;11.50;8.32;;;17.50;99.90;;;;;;5012200;28;20094;-72
2023/06/25 04:50:58;;;;;;;10.05;7.95;;;17.50;99.90;;;;;;5011329;28;20140;-72
2023/06/25 04:53:27;;;;;;;9.18;7.43;;;17.60;99.90;;;;;;4976342;28;20052;-72
2023/06/25 04:55:54;;;;;;;11.23;8.35;;;17.70;99.90;;;;;;4994968;28;20144;-72
2023/06/25 04:58:21;;;;;;;11.43;7.95;;;17.70;99.90;;;;;;5014474;28;20132;-72
2023/06/25 05:00:49;;;;;;;12.18;8.23;;;17.80;99.90;;;;;;5009567;28;20069;-72
2023/06/25 05:03:16;;;;;;;9.85;7.63;;;17.90;99.90;;;;;;5011755;28;20145;-72
2023/06/25 05:05:44;;;;;;;9.25;7.82;;;17.90;99.90;;;;;;5010758;28;20132;-72
2023/06/25 05:08:12;;;;;;;10.48;8.45;;;18.00;99.90;;;;;;4993389;28;20844;-72
2023/06/25 05:10:42;;;;;;;10.55;8.73;;;18.00;99.90;;;;;;4994815;28;20068;-71
2023/06/25 05:13:10;;;;;;;8.90;7.45;;;18.10;99.90;;;;;;5012998;28;20049;-71
2023/06/25 05:15:41;;;;;;;9.38;8.05;;;18.20;99.90;;;;;;5011269;28;20082;-71
2023/06/25 05:18:09;;;;;;;12.00;7.82;;;18.20;99.90;;;;;;5010373;28;20074;-71
2023/06/25 05:20:37;;;;;;;9.10;8.00;;;18.30;99.90;;;;;;4995936;28;20514;-73
2023/06/25 05:23:09;;;;;;;12.00;8.85;;;18.30;99.90;;;;;;5015771;28;20042;-71
2023/06/25 05:25:37;;;;;;;8.90;7.72;;;18.40;99.90;;;;;;4997982;28;20049;-73
2023/06/25 05:28:05;;;;;;;10.18;7.97;;;18.50;99.90;;;;;;5009443;28;20132;-73
2023/06/25 05:30:33;;;;;;;9.35;7.22;;;18.50;99.90;;;;;;5011101;28;20067;-71
2023/06/25 05:33:02;;;;;;;8.48;7.05;;;18.60;99.90;;;;;;4992592;28;20505;-72
2023/06/25 05:35:29;;;;;;;8.05;7.25;;;18.80;99.90;;;;;;5009663;28;20076;-72
2023/06/25 05:37:57;;;;;;;9.57;7.43;;;18.80;99.90;;;;;;5014785;28;20049;-72
2023/06/25 05:40:26;;;;;;;10.95;8.05;;;18.90;99.90;;;;;;5013445;28;20058;-73
2023/06/25 05:42:55;;;;;;;8.77;7.85;;;18.90;99.90;;;;;;5011727;28;20112;-72
2023/06/25 05:45:23;;;;;;;10.45;8.60;;;19.00;99.90;;;;;;4986167;28;20049;-72
2023/06/25 05:47:50;;;;;;;8.93;7.30;;;19.10;99.90;;;;;;4978795;28;20539;-72
2023/06/25 05:50:18;;;;;;;11.77;7.55;;;19.10;99.90;;;;;;5009228;28;20065;-72
2023/06/25 05:52:46;;;;;;;8.68;7.78;;;19.30;99.90;;;;;;5009261;28;20137;-72
2023/06/25 05:55:13;;;;;;;8.85;7.72;;;19.30;99.90;;;;;;5008418;28;20060;-72
2023/06/25 05:57:41;;;;;;;9.10;7.38;;;19.40;99.90;;;;;;5010400;28;20058;-72
2023/06/25 06:00:09;;;;;;;8.98;8.07;;;19.50;99.90;;;;;;5008713;28;20076;-72
2023/06/25 06:02:40;;;;;;;8.27;7.32;;;19.50;99.90;;;;;;5010790;28;20129;-72
2023/06/25 06:05:08;;;;;;;10.68;7.80;;;19.60;99.90;;;;;;5008019;28;20080;-73
2023/06/25 06:07:36;;;;;;;10.27;7.80;;;19.70;99.90;;;;;;4992330;28;20227;-72
2023/06/25 06:10:03;;;;;;;8.88;7.88;;;19.80;99.90;;;;;;5011324;28;20134;-73
2023/06/25 06:12:32;;;;;;;9.43;7.50;;;19.90;99.90;;;;;;5008827;28;20050;-72
2023/06/25 06:14:59;;;;;;;9.00;7.10;;;20.10;99.90;;;;;;5009768;28;20045;-73
2023/06/25 06:17:27;;;;;;;8.25;7.35;;;20.20;99.90;;;;;;5010846;28;20128;-73
2023/06/25 06:19:55;;;;;;;7.97;7.18;;;20.30;99.90;;;;;;4993771;28;20573;-73
2023/06/25 06:22:23;;;;;;;9.60;7.00;;;20.40;99.90;;;;;;5009869;28;20049;-73
2023/06/25 06:24:50;;;;;;;9.40;7.70;;;20.50;99.90;;;;;;5009102;28;20053;-73
2023/06/25 06:27:19;;;;;;;9.00;7.43;;;20.50;99.90;;;;;;5008447;28;20046;-73
2023/06/25 06:29:47;;;;;;;8.10;7.30;;;20.60;99.90;;;;;;5010137;28;20276;-73
2023/06/25 06:32:14;;;;;;;9.60;7.85;;;20.70;99.90;;;;;;5009529;28;20076;-73
2023/06/25 06:34:42;;;;;;;10.20;7.57;;;20.80;99.90;;;;;;5008279;28;20057;-73
2023/06/25 06:37:11;;;;;;;10.65;7.30;;;20.90;99.90;;;;;;5009320;28;20112;-73
2023/06/25 06:39:38;;;;;;;9.32;7.38;;;21.00;99.90;;;;;;5008371;28;20112;-73
2023/06/25 06:42:06;;;;;;;8.30;7.20;;;21.00;99.90;;;;;;4992767;28;20041;-73
2023/06/25 06:44:34;;;;;;;8.80;7.90;;;21.10;99.90;;;;;;5007339;28;20045;-73
2023/06/25 06:47:01;;;;;;;8.13;7.32;;;21.10;99.90;;;;;;5005272;28;20049;-73
2023/06/25 06:49:30;;;;;;;8.90;7.60;;;21.20;99.90;;;;;;5002289;28;20205;-73
2023/06/25 06:51:58;;;;;;;8.75;7.68;;;21.30;99.90;;;;;;5009590;28;20128;-73
2023/06/25 06:54:27;;;;;;;10.25;7.90;;;21.40;99.90;;;;;;5002082;28;20062;-73
2023/06/25 06:56:55;;;;;;;9.25;7.43;;;21.50;99.90;;;;;;4997800;28;20057;-73
2023/06/25 06:59:23;;;;;;;11.65;8.35;;;21.50;99.90;;;;;;5012274;28;20163;-73
2023/06/25 07:01:51;;;;;;;9.27;7.80;;;21.60;99.90;;;;;;5002450;28;20580;-73
2023/06/25 07:04:18;;;;;;;9.90;8.05;;;21.60;99.90;;;;;;4991278;28;20509;-73
2023/06/25 07:06:46;;;;;;;9.48;7.57;;;21.70;99.90;;;;;;5008646;28;20104;-73
2023/06/25 07:09:15;;;;;;;10.50;7.43;;;21.70;99.90;;;;;;4994677;28;20133;-73
2023/06/25 07:11:43;;;;;;;8.38;7.22;;;21.80;99.90;;;;;;4991214;28;20135;-73
2023/06/25 07:14:12;;;;;;;9.80;8.00;;;21.90;99.90;;;;;;4990734;28;20093;-73
2023/06/25 07:16:41;;;;;;;8.85;7.32;;;21.90;99.90;;;;;;5008809;28;20383;-73
2023/06/25 07:19:09;;;;;;;10.30;7.00;;;22.00;99.90;;;;;;4991712;28;20057;-73
2023/06/25 07:21:38;;;;;;;7.88;7.07;;;22.00;99.90;;;;;;5001958;28;20050;-73
2023/06/25 07:24:06;;;;;;;7.70;7.00;;;22.10;99.90;;;;;;5009001;28;20129;-73
2023/06/25 07:26:33;;;;;;;9.10;7.30;;;22.20;99.90;;;;;;5008050;28;20069;-73
2023/06/25 07:29:00;;;;;;;8.40;7.43;;;22.30;99.90;;;;;;4975252;28;20046;-73
2023/06/25 07:31:30;;;;;;;9.20;7.57;;;22.40;99.90;;;;;;5009160;28;20054;-73
2023/06/25 07:33:57;;;;;;;9.43;7.03;;;22.40;99.90;;;;;;5007878;28;20080;-73
2023/06/25 07:36:25;;;;;;;7.70;6.90;;;22.50;99.90;;;;;;5007654;28;20046;-71
2023/06/25 07:38:58;;;;;;;13.13;7.38;;;22.60;99.90;;;;;;5007606;28;20058;-73
2023/06/25 07:41:26;;;;;;;8.52;7.32;;;22.70;99.90;;;;;;4991790;28;20057;-72
2023/06/25 07:43:55;;;;;;;7.97;7.15;;;22.70;99.90;;;;;;5009231;28;20141;-72
2023/06/25 07:46:23;;;;;;;8.32;7.30;;;22.90;99.90;;;;;;5009207;28;20042;-72
2023/06/25 07:48:52;;;;;;;9.27;7.50;;;22.90;99.90;;;;;;5008782;28;20179;-72
2023/06/25 07:51:20;;;;;;;9.90;7.65;;;23.00;99.90;;;;;;5008302;28;20060;-72
2023/06/25 07:53:47;;;;;;;9.60;7.55;;;23.10;99.90;;;;;;5000468;28;20054;-72
2023/06/25 07:56:15;;;;;;;11.43;9.45;;;23.30;99.90;;;;;;5014963;28;20073;-73
2023/06/25 07:58:43;;;;;;;9.00;7.40;;;23.20;99.90;;;;;;4983415;28;20151;-73
2023/06/25 08:01:10;;;;;;;9.02;7.22;;;23.30;99.90;;;;;;4993605;28;20049;-73
2023/06/25 08:03:38;;;;;;;7.97;7.18;;;23.20;99.90;;;;;;4994559;28;20470;-72
2023/06/25 08:06:05;;;;;;;8.95;7.38;;;23.30;99.90;;;;;;5012917;28;20046;-73
2023/06/25 08:08:33;;;;;;;11.30;7.90;;;23.20;99.90;;;;;;5013659;28;20409;-73
2023/06/25 08:11:00;;;;;;;12.23;8.15;;;23.30;99.90;;;;;;4992479;28;20144;-72
2023/06/25 08:13:28;;;;;;;10.27;7.47;;;23.50;99.90;;;;;;5014283;28;20509;-72
2023/06/25 08:15:57;;;;;;;13.65;7.95;;;23.60;99.90;;;;;;5001365;28;20143;-72
2023/06/25 08:18:24;;;;;;;9.23;8.02;;;23.70;99.90;;;;;;5013401;28;20150;-73
2023/06/25 08:20:52;;;;;;;12.00;8.25;;;23.80;99.90;;;;;;5012065;28;20137;-73
2023/06/25 08:23:19;;;;;;;10.20;7.38;;;23.90;99.90;;;;;;5012573;28;20085;-72
2023/06/25 08:25:47;;;;;;;8.23;7.32;;;24.00;99.90;;;;;;5004004;28;20056;-73
2023/06/25 08:28:15;;;;;;;8.38;6.88;;;24.00;99.90;;;;;;4993857;28;20138;-73
2023/06/25 08:30:42;;;;;;;9.10;6.97;;;24.10;99.90;;;;;;4994782;28;20134;-73
2023/06/25 08:33:10;;;;;;;9.85;6.85;;;24.20;99.90;;;;;;4992507;28;20050;-73
2023/06/25 08:35:37;;;;;;;7.40;6.32;;;24.20;99.90;;;;;;4986411;28;20148;-73
2023/06/25 08:38:05;;;;;;;7.35;6.57;;;24.40;99.90;;;;;;5015764;28;20595;-73
2023/06/25 08:40:35;;;;;;;10.45;7.20;;;24.50;99.90;;;;;;5027931;28;20045;-73
2023/06/25 08:43:03;;;;;;;8.65;7.18;;;24.50;99.90;;;;;;4990918;28;20517;-73
2023/06/25 08:45:33;;;;;;;9.05;7.65;;;24.60;99.90;;;;;;5026504;28;20132;-73
2023/06/25 08:48:04;;;;;;;8.40;6.18;;;24.70;99.90;;;;;;5010079;28;20081;-73
2023/06/25 08:50:32;;;;;;;8.85;6.95;;;24.70;99.90;;;;;;4992266;28;20096;-73
2023/06/25 08:52:59;;;;;;;9.20;7.13;;;24.80;99.90;;;;;;5011255;28;20049;-73
2023/06/25 08:55:28;;;;;;;8.40;6.88;;;24.90;99.90;;;;;;4995691;28;20164;-73
2023/06/25 08:57:57;;;;;;;9.02;6.60;;;24.90;99.90;;;;;;5018378;28;20513;-73
2023/06/25 09:00:24;;;;;;;8.65;6.82;;;24.80;99.90;;;;;;5001456;28;20092;-74
2023/06/25 09:02:54;;;;;;;10.90;7.43;;;24.70;99.90;;;;;;5010740;28;20077;-73
2023/06/25 09:05:26;;;;;;;8.38;6.22;;;24.80;99.90;;;;;;5021542;28;20052;-73
2023/06/25 09:07:55;;;;;;;8.82;6.68;;;24.90;99.90;;;;;;5011401;28;20494;-73
2023/06/25 09:10:23;;;;;;;12.60;9.57;;;25.00;99.90;;;;;;5011425;28;20533;-73
2023/06/25 09:12:52;;;;;;;8.15;6.88;;;25.10;99.90;;;;;;5011515;28;20081;-72
2023/06/25 09:15:24;;;;;;;7.00;6.07;;;25.10;99.90;;;;;;5009974;28;20132;-72
2023/06/25 09:17:55;;;;;;;;;;;25.20;99.90;;;;;;5012761;28;20054;-72
2023/06/25 09:20:24;;;;;;;7.22;6.38;;;25.30;99.90;;;;;;5010002;28;19922;-72
2023/06/25 09:22:55;;;;;;;6.80;6.07;;;25.40;99.90;;;;;;5011134;28;20053;-72
2023/06/25 09:25:31;;;;;;;8.50;6.23;;;25.60;99.90;;;;;;4978477;28;20057;-72
2023/06/25 09:28:02;;;;;;;8.80;6.75;;;25.80;99.90;;;;;;4993609;28;20833;-73
2023/06/25 09:30:33;;;;;;;11.45;6.40;;;25.70;99.90;;;;;;5010455;28;20050;-72
2023/06/25 09:33:03;;;;;;;7.03;6.07;;;25.70;99.90;;;;;;5011311;28;20057;-73
2023/06/25 09:35:33;;;;;;;7.18;5.60;;;25.90;99.90;;;;;;5009245;28;20141;-73
2023/06/25 09:38:01;;;;;;;8.52;6.63;;;25.80;99.90;;;;;;5009245;28;20065;-72
2023/06/25 09:40:29;;;;;;;7.28;5.90;;;25.90;99.90;;;;;;5001527;28;20133;-72
2023/06/25 09:42:59;;;;;;;7.70;6.43;;;26.00;99.90;;;;;;5010789;28;20053;-73
2023/06/25 09:45:27;;;;;;;6.55;5.47;;;26.20;99.90;;;;;;4976617;28;20362;-72
2023/06/25 09:47:57;;;;;;;6.88;5.80;;;26.40;99.90;;;;;;5012205;28;20457;-72
2023/06/25 09:50:38;;;;;;;7.55;6.13;;;26.50;99.90;;;;;;4994607;28;20460;-73
2023/06/25 09:53:11;;;;;;;7.10;5.80;;;26.60;99.90;;;;;;5011931;28;20053;-73
2023/06/25 09:55:40;;;;;;;;;;;26.70;99.90;;;;;;4988637;28;20072;-72
2023/06/25 09:58:09;;;;;;;6.47;5.70;;;26.60;99.90;;;;;;5014115;28;19971;-73
2023/06/25 10:00:38;;;;;;;9.57;5.75;;;26.70;99.90;;;;;;5002695;28;20496;-72
2023/06/25 10:03:07;;;;;;;6.70;6.05;;;26.80;99.90;;;;;;5008521;28;20053;-72
2023/06/25 10:05:38;;;;;;;8.00;7.20;;;26.90;99.90;;;;;;5008212;28;20119;-72
2023/06/25 10:08:06;;;;;;;7.87;6.63;;;27.10;99.90;;;;;;5010886;28;20048;-72
2023/06/25 10:10:34;;;;;;;6.97;6.28;;;27.30;99.60;;;;;;5009413;28;20057;-73
2023/06/25 10:13:03;;;;;;;6.68;5.90;;;27.40;99.00;;;;;;5008739;28;20053;-73
2023/06/25 10:15:33;;;;;;;6.70;6.00;;;27.60;99.20;;;;;;5001159;28;20050;-72
2023/06/25 10:18:06;;;;;;;6.97;6.28;;;27.70;98.70;;;;;;5008679;28;20373;-72
2023/06/25 10:20:38;;;;;;;7.38;6.50;;;27.90;98.10;;;;;;5003318;28;20065;-72
2023/06/25 10:23:10;;;;;;;7.10;6.22;;;28.10;97.90;;;;;;4984568;28;20058;-72
2023/06/25 10:25:54;;;;;;;7.70;6.35;;;28.20;97.20;;;;;;5027997;28;20128;-73
2023/06/25 10:28:34;;;;;;;9.30;6.20;;;28.30;96.80;;;;;;5010636;28;20449;-74
2023/06/25 10:31:13;;;;;;;7.43;6.72;;;28.50;96.40;;;;;;5002878;28;20077;-73
2023/06/25 10:33:42;;;;;;;7.07;6.32;;;28.60;95.50;;;;;;5007557;28;20433;-73
2023/06/25 10:36:12;;;;;;;6.93;6.33;;;28.50;94.80;;;;;;5009535;28;20112;-73
2023/06/25 10:38:40;;;;;;;7.05;6.35;;;28.10;94.80;;;;;;5008028;28;20355;-73
2023/06/25 10:41:07;;;;;;;8.50;6.72;;;28.20;94.70;;;;;;5006473;28;20054;-73
2023/06/25 10:43:37;;;;;;;7.15;6.45;;;28.40;94.70;;;;;;4992938;28;20042;-73
2023/06/25 10:46:04;;;;;;;7.90;6.50;;;28.50;94.40;;;;;;5007506;28;20169;-73
2023/06/25 10:48:32;;;;;;;9.13;7.20;;;28.60;94.30;;;;;;5007215;28;20057;-73
2023/06/25 10:51:00;;;;;;;7.88;7.07;;;28.80;94.50;;;;;;5008047;28;20057;-73
2023/06/25 10:53:27;;;;;;;7.57;6.78;;;29.00;94.00;;;;;;5007807;28;20053;-74
2023/06/25 10:55:56;;;;;;;9.02;6.45;;;29.10;93.50;;;;;;5010331;28;20080;-74
2023/06/25 10:58:24;;;;;;;8.70;7.82;;;29.40;93.40;;;;;;5017665;28;20045;-74
2023/06/25 11:00:56;;;;;;;9.13;7.70;;;29.70;92.80;;;;;;5009499;28;20056;-73
2023/06/25 11:03:24;;;;;;;11.18;8.93;;;29.90;92.00;;;;;;4991098;28;20073;-73
2023/06/25 11:05:52;;;;;;;7.00;6.30;;;30.10;91.10;;;;;;4994581;28;20046;-73
2023/06/25 11:08:24;;;;;;;6.95;6.35;;;30.40;90.50;;;;;;4951757;28;1588898;-73
2023/06/25 11:10:52;;;;;;;9.25;6.63;;;30.40;89.30;;;;;;4980353;28;20130;-72
2023/06/25 11:13:26;;;;;;;6.72;6.13;;;30.40;88.20;;;;;;4992497;28;20077;-73
2023/06/25 11:15:55;;;;;;;7.47;6.18;;;30.40;88.10;;;;;;5008233;28;20583;-73
2023/06/25 11:18:23;;;;;;;7.85;7.05;;;30.60;87.30;;;;;;4991611;28;20469;-72
2023/06/25 11:20:53;;;;;;;7.00;6.40;;;30.50;86.30;;;;;;5008356;28;20065;-74
2023/06/25 11:23:21;;;;;;;7.35;6.22;;;30.40;86.60;;;;;;5015859;28;20042;-73
2023/06/25 11:25:49;;;;;;;7.22;6.53;;;30.90;85.90;;;;;;5010706;28;20080;-73
2023/06/25 11:28:17;;;;;;;6.57;5.97;;;31.30;83.30;;;;;;5008052;28;20517;-72
2023/06/25 11:30:45;;;;;;;6.80;6.15;;;31.70;81.70;;;;;;4992446;28;20076;-73
2023/06/25 11:33:19;;;;;;;6.97;6.05;;;31.80;79.30;;;;;;5010242;28;20065;-73
2023/06/25 11:35:50;;;;;;;7.57;6.78;;;32.00;78.30;;;;;;5008265;28;20093;-73
2023/06/25 11:38:28;;;;;;;6.82;6.13;;;32.20;77.80;;;;;;4995291;28;20092;-73
2023/06/25 11:40:57;;;;;;;7.03;6.32;;;32.40;75.90;;;;;;5009310;28;20148;-73
2023/06/25 11:43:25;;;;;;;7.18;5.72;;;32.60;76.10;;;;;;5010601;28;20121;-72
2023/06/25 11:46:01;;;;;;;7.22;6.05;;;32.70;75.60;;;;;;5001651;28;20081;-72
2023/06/25 11:48:29;;;;;;;8.27;7.32;;;32.90;74.50;;;;;;5009144;28;20054;-73
2023/06/25 11:51:05;;;;;;;8.23;7.35;;;33.30;74.20;;;;;;5009019;28;20061;-73
2023/06/25 11:53:33;;;;;;;8.15;6.45;;;33.60;72.60;;;;;;4999393;28;20054;-73
2023/06/25 11:56:01;;;;;;;7.00;5.70;;;33.70;72.10;;;;;;5012934;28;20481;-73
2023/06/25 11:58:29;;;;;;;7.55;6.80;;;34.00;70.60;;;;;;5007165;28;20137;-73
2023/06/25 12:00:56;;;;;;;7.53;6.50;;;34.00;69.30;;;;;;5009917;28;20089;-73
2023/06/25 12:03:24;;;;;;;8.57;6.97;;;33.80;69.00;;;;;;5007723;28;20049;-73
2023/06/25 12:05:52;;;;;;;7.65;5.75;;;33.90;68.50;;;;;;4975274;28;20049;-73
2023/06/25 12:08:20;;;;;;;5.80;5.30;;;34.20;67.60;;;;;;5008960;28;20575;-73
2023/06/25 12:10:49;;;;;;;7.07;6.07;;;34.60;67.30;;;;;;5009479;28;20049;-73
2023/06/25 12:13:17;;;;;;;7.78;7.07;;;34.80;65.30;;;;;;5008537;28;20050;-73
2023/06/25 12:15:45;;;;;;;6.60;6.00;;;34.40;65.60;;;;;;5003260;28;20062;-73
2023/06/25 12:18:13;;;;;;;6.65;5.90;;;34.70;64.80;;;;;;4976092;28;20041;-73
2023/06/25 12:20:40;;;;;;;7.53;6.82;;;35.20;63.30;;;;;;5007631;28;20057;-72
2023/06/25 12:23:08;;;;;;;8.18;6.43;;;35.70;62.40;;;;;;5010817;28;20049;-73
2023/06/25 12:25:38;;;;;;;6.72;6.13;;;36.30;61.00;;;;;;5006109;28;20065;-73
2023/06/25 12:28:06;;;;;;;6.60;6.00;;;36.80;59.80;;;;;;5005128;28;20056;-73
2023/06/25 12:30:33;;;;;;;6.55;5.93;;;37.10;58.30;;;;;;5024236;28;20538;-73
2023/06/25 12:33:01;;;;;;;5.85;5.25;;;36.80;57.60;;;;;;5014112;28;20053;-73
2023/06/25 12:35:29;;;;;;;6.60;5.90;;;36.80;56.20;;;;;;4991718;28;20054;-74
2023/06/25 12:37:56;;;;;;;6.65;6.00;;;37.20;55.90;;;;;;5020183;28;20054;-74
2023/06/25 12:40:24;;;;;;;6.47;5.55;;;37.20;54.70;;;;;;5008912;28;20136;-74
2023/06/25 12:42:55;;;;;;;6.68;6.07;;;36.80;54.40;;;;;;4982203;28;20545;-73
2023/06/25 12:45:22;;;;;;;6.70;5.80;;;36.60;55.30;;;;;;5011372;28;20052;-74
2023/06/25 12:47:50;;;;;;;6.63;6.00;;;37.10;54.90;;;;;;5003413;28;20532;-73
2023/06/25 12:50:20;;;;;;;6.65;5.95;;;37.50;54.20;;;;;;4990313;28;20104;-73